Time;durP1;ratioP1;P1;durP2;ratioP2;P2;SDS_P1;SDS_P2;PMS_P1;PMS_P2;Temp;Humidity;BMP_temperature;BMP_pressure;BME280_temperature;BME280_humidity;BME280_pressure;Samples;Min_cycle;Max_cycle;Signal;HPM_P1;HPM_P2
2022/02/12 00:01:53;;;;;;;;;40.25;35.50;;;;;8.98;52.50;102857.88;5102655;27;45360;-81
2022/02/12 00:04:19;;;;;;;;;36.25;32.25;;;;;8.99;52.66;102862.34;5097572;27;45523;-81
2022/02/12 00:06:44;;;;;;;;;42.00;37.25;;;;;9.01;52.33;102874.78;5096706;27;45346;-81
2022/02/12 00:09:09;;;;;;;;;37.25;34.75;;;;;9.02;52.31;102873.00;5102574;27;45914;-82
2022/02/12 00:11:35;;;;;;;;;37.00;33.25;;;;;9.01;52.72;102872.09;5102192;27;45191;-81
2022/02/12 00:14:00;;;;;;;;;35.50;33.25;;;;;9.02;52.27;102870.31;5101034;27;45455;-82
2022/02/12 00:16:25;;;;;;;;;29.75;29.75;;;;;8.98;52.53;102858.75;5100759;27;45571;-81
2022/02/12 00:18:50;;;;;;;;;34.50;33.75;;;;;9.00;52.30;102848.13;5102214;27;46090;-82
2022/02/12 00:21:16;;;;;;;;;33.25;30.50;;;;;8.99;52.53;102849.00;5096673;27;45325;-81
2022/02/12 00:23:41;;;;;;;;;40.75;36.00;;;;;9.03;52.54;102851.69;5087526;27;46362;-82
2022/02/12 00:26:07;;;;;;;;;38.50;33.50;;;;;9.02;52.27;102851.69;5101373;27;45397;-81
2022/02/12 00:28:32;;;;;;;;;35.25;33.75;;;;;9.02;52.32;102860.59;5099213;27;48038;-82
2022/02/12 00:30:57;;;;;;;;;37.25;34.00;;;;;8.88;52.30;102841.81;5102162;27;45269;-81
2022/02/12 00:33:22;;;;;;;;;48.75;32.75;;;;;8.93;52.28;102851.63;5102060;27;45289;-81
2022/02/12 00:35:48;;;;;;;;;34.75;32.75;;;;;8.92;52.29;102848.06;5102296;27;45465;-82
2022/02/12 00:38:13;;;;;;;;;38.00;35.25;;;;;8.85;52.83;102830.22;5098697;27;46145;-81
2022/02/12 00:40:38;;;;;;;;;44.75;38.00;;;;;8.95;52.58;102848.06;5095397;27;45681;-82
2022/02/12 00:43:04;;;;;;;;;41.50;36.50;;;;;8.95;52.82;102849.84;5101312;27;45229;-82
2022/02/12 00:45:29;;;;;;;;;33.00;31.25;;;;;8.90;53.07;102841.81;5102181;27;45599;-82
2022/02/12 00:47:55;;;;;;;;;30.00;29.75;;;;;8.92;52.45;102839.16;5101465;27;45259;-81
2022/02/12 00:50:20;;;;;;;;;30.50;26.75;;;;;8.89;52.47;102842.72;5102031;27;45344;-81
2022/02/12 00:52:46;;;;;;;;;24.75;21.00;;;;;8.90;52.51;102840.06;5101626;27;45759;-81
2022/02/12 00:55:12;;;;;;;;;24.00;21.50;;;;;8.90;52.35;102841.81;5101187;27;45485;-82
2022/02/12 00:57:37;;;;;;;;;25.75;21.75;;;;;8.85;52.13;102833.81;5099695;27;45389;-81
2022/02/12 01:00:04;;;;;;;;;20.75;20.75;;;;;8.88;52.62;102838.25;5101553;27;45314;-82
2022/02/12 01:02:29;;;;;;;;;25.75;23.50;;;;;8.84;52.31;102828.47;5099624;27;45828;-82
2022/02/12 01:04:55;;;;;;;;;25.00;22.25;;;;;8.88;52.11;102835.59;5101936;27;45344;-82
2022/02/12 01:07:20;;;;;;;;;19.25;18.25;;;;;8.83;52.23;102824.91;5101278;27;45257;-81
2022/02/12 01:09:46;;;;;;;;;23.25;18.25;;;;;8.87;52.28;102831.13;5101683;27;45148;-82
2022/02/12 01:12:11;;;;;;;;;20.25;20.00;;;;;8.87;52.18;102828.47;5101500;27;45344;-82
2022/02/12 01:14:37;;;;;;;;;20.00;18.75;;;;;8.85;52.20;102808.94;5099820;27;45542;-82
2022/02/12 01:17:03;;;;;;;;;22.75;21.00;;;;;8.87;52.02;102816.06;5100892;27;45310;-82
2022/02/12 01:19:28;;;;;;;;;20.25;20.25;;;;;8.84;51.90;102804.50;5101419;27;45614;-81
2022/02/12 01:21:53;;;;;;;;;20.00;17.25;;;;;8.78;52.03;102797.34;5093107;27;45397;-81
2022/02/12 01:24:19;;;;;;;;;19.25;19.00;;;;;8.76;52.19;102801.75;5089771;27;45372;-81
2022/02/12 01:26:44;;;;;;;;;21.00;19.00;;;;;8.77;52.19;102797.31;5101127;27;45206;-81
2022/02/12 01:29:10;;;;;;;;;19.00;17.50;;;;;8.75;52.34;102794.66;5099673;27;45494;-81
2022/02/12 01:31:35;;;;;;;;;17.50;15.25;;;;;8.74;51.95;102784.91;5097562;27;46879;-82
2022/02/12 01:34:01;;;;;;;;;21.00;15.75;;;;;8.71;51.83;102782.19;5101327;27;45403;-82
2022/02/12 01:36:27;;;;;;;;;15.50;14.50;;;;;8.75;51.79;102791.09;5114810;27;45346;-82
2022/02/12 01:38:52;;;;;;;;;20.50;17.25;;;;;8.74;51.83;102792.88;5101395;27;45772;-82
2022/02/12 01:41:18;;;;;;;;;20.25;19.75;;;;;8.75;51.92;102791.97;5100654;27;45246;-81
2022/02/12 01:43:43;;;;;;;;;19.25;16.75;;;;;8.68;51.95;102783.06;5099370;27;45655;-82
2022/02/12 01:46:08;;;;;;;;;17.25;15.50;;;;;8.73;52.07;102793.75;5100666;27;45352;-81
2022/02/12 01:48:34;;;;;;;;;19.00;15.50;;;;;8.75;52.19;102793.75;5099390;27;45270;-82
2022/02/12 01:51:02;;;;;;;;;18.75;18.50;;;;;8.67;51.89;102775.03;5100889;27;45473;-82
2022/02/12 01:53:27;;;;;;;;;20.25;16.75;;;;;8.69;51.79;102781.31;5101005;27;45226;-82
2022/02/12 01:55:54;;;;;;;;;18.75;18.25;;;;;8.70;52.03;102778.66;5100295;27;45379;-82
2022/02/12 01:58:20;;;;;;;;;22.25;20.00;;;;;8.65;52.23;102775.06;5099581;27;45818;-82
2022/02/12 02:00:45;;;;;;;;;19.25;19.00;;;;;8.65;51.90;102766.16;5100711;27;45407;-82
2022/02/12 02:03:12;;;;;;;;;18.25;17.00;;;;;8.62;51.89;102760.81;5095449;27;45374;-82
2022/02/12 02:05:37;;;;;;;;;14.75;14.00;;;;;8.66;52.28;102773.28;5099532;27;45532;-82
2022/02/12 02:08:03;;;;;;;;;19.00;15.25;;;;;8.64;52.11;102767.06;5100715;27;45331;-82
2022/02/12 02:10:29;;;;;;;;;16.50;14.75;;;;;8.64;51.78;102761.75;5099208;27;45306;-81
2022/02/12 02:12:54;;;;;;;;;19.25;19.00;;;;;8.63;51.89;102754.63;5100085;27;45267;-82
2022/02/12 02:15:20;;;;;;;;;19.00;18.50;;;;;8.61;52.05;102749.28;5099998;27;45417;-82
2022/02/12 02:17:45;;;;;;;;;13.00;10.00;;;;;8.53;51.91;102730.56;5100470;27;45285;-81
2022/02/12 02:20:11;;;;;;;;;21.25;19.25;;;;;8.59;52.15;102747.50;5099266;27;45410;-82
2022/02/12 02:23:03;;;;;;;;;21.00;18.25;;;;;8.57;52.22;102736.84;5085294;27;45370;-82
2022/02/12 02:25:28;;;;;;;;;17.50;14.25;;;;;8.52;51.82;102727.94;5094860;27;46462;-82
2022/02/12 02:27:54;;;;;;;;;21.00;20.00;;;;;8.57;51.99;102736.84;5100343;27;45344;-82
2022/02/12 02:30:21;;;;;;;;;21.25;18.25;;;;;8.56;51.81;102731.50;5112356;27;45359;-82
2022/02/12 02:32:46;;;;;;;;;19.00;17.50;;;;;8.50;51.87;102725.25;5100034;27;45292;-82
2022/02/12 02:35:15;;;;;;;;;20.00;17.75;;;;;8.44;52.06;102719.88;5086288;27;46141;-82
2022/02/12 02:37:42;;;;;;;;;15.75;15.00;;;;;8.37;51.99;102698.47;5099896;27;45509;-82
2022/02/12 02:40:16;;;;;;;;;24.75;19.25;;;;;8.47;52.20;102716.31;5100681;27;45330;-82
2022/02/12 02:42:46;;;;;;;;;18.50;18.50;;;;;8.44;51.93;102711.88;5099743;27;45459;-82
2022/02/12 02:45:13;;;;;;;;;23.75;19.00;;;;;8.43;52.16;102712.75;5100315;27;46112;-82
2022/02/12 02:47:42;;;;;;;;;24.25;21.00;;;;;8.38;51.95;102705.59;5098185;27;45700;-82
2022/02/12 02:56:00;;;;;;;;;18.00;15.00;;;;;8.26;51.97;102685.09;5099694;27;45375;-82
2022/02/12 02:58:36;;;;;;;;;21.00;20.50;;;;;8.29;51.57;102695.78;5100206;27;45705;-82
2022/02/12 03:01:03;;;;;;;;;22.75;18.50;;;;;8.26;52.10;102688.63;5098483;27;45294;-81
2022/02/12 03:03:32;;;;;;;;;23.00;15.75;;;;;8.18;52.00;102677.03;5098884;27;45222;-82
2022/02/12 03:05:58;;;;;;;;;20.75;18.00;;;;;8.20;51.68;102672.63;5110155;27;45368;-82
2022/02/12 03:08:28;;;;;;;;;17.25;17.00;;;;;8.24;52.32;102677.09;5100285;27;45468;-82
2022/02/12 03:10:54;;;;;;;;;20.00;18.75;;;;;8.21;52.04;102670.88;5086856;27;45348;-82
2022/02/12 03:13:19;;;;;;;;;20.00;18.00;;;;;8.23;52.22;102666.44;5099596;27;45238;-81
2022/02/12 03:15:45;;;;;;;;;19.00;19.00;;;;;8.24;52.27;102663.78;5099815;27;46015;-82
2022/02/12 03:18:10;;;;;;;;;18.75;14.75;;;;;8.19;52.44;102648.69;5102141;27;45333;-81
2022/02/12 03:20:36;;;;;;;;;18.75;18.00;;;;;8.21;51.98;102649.59;5103626;27;45238;-82
2022/02/12 03:23:01;;;;;;;;;24.50;19.75;;;;;8.24;52.23;102653.16;5092825;27;45373;-81
2022/02/12 03:25:28;;;;;;;;;19.25;18.25;;;;;8.21;52.07;102645.13;5102817;27;45823;-81
2022/02/12 03:27:58;;;;;;;;;21.00;18.25;;;;;8.22;52.34;102646.03;5103264;27;45317;-81
2022/02/12 03:30:26;;;;;;;;;22.25;22.25;;;;;8.19;52.14;102636.25;5103578;27;45289;-82
2022/02/12 03:32:52;;;;;;;;;20.25;20.00;;;;;8.13;52.00;102633.53;5102307;27;45505;-82
2022/02/12 03:35:17;;;;;;;;;18.75;17.75;;;;;8.05;52.59;102621.94;5102871;27;45417;-81
2022/02/12 03:37:43;;;;;;;;;24.00;19.25;;;;;8.14;52.07;102646.84;5102302;27;45388;-81
2022/02/12 03:40:12;;;;;;;;;24.75;21.25;;;;;8.10;52.31;102634.44;5101490;27;45502;-82
2022/02/12 03:42:39;;;;;;;;;20.25;16.50;;;;;8.10;52.09;102631.78;5102723;27;45397;-81
2022/02/12 03:45:05;;;;;;;;;23.00;18.75;;;;;8.07;52.35;102621.09;5103276;27;45441;-82
2022/02/12 03:47:31;;;;;;;;;24.00;21.25;;;;;8.07;51.94;102621.09;5102625;27;45313;-82
2022/02/12 03:49:56;;;;;;;;;23.25;21.75;;;;;8.12;52.34;102626.47;5101235;27;45386;-82
2022/02/12 03:52:22;;;;;;;;;20.00;18.50;;;;;8.11;52.16;102625.56;5101217;27;45536;-81
2022/02/12 03:54:47;;;;;;;;;23.75;21.00;;;;;8.10;52.15;102622.88;5102671;27;46050;-82
2022/02/12 03:57:12;;;;;;;;;24.00;19.50;;;;;8.05;52.26;102622.88;5102673;27;45361;-81
2022/02/12 03:59:38;;;;;;;;;23.00;21.25;;;;;8.02;52.28;102612.19;5100629;27;45368;-82
2022/02/12 04:02:03;;;;;;;;;27.25;22.00;;;;;8.01;52.39;102602.41;5102506;27;45290;-82
2022/02/12 04:04:29;;;;;;;;;24.00;17.00;;;;;8.03;52.17;102603.31;5102563;27;45860;-81
2022/02/12 04:06:54;;;;;;;;;25.00;19.75;;;;;7.98;52.36;102586.44;5102371;27;45364;-82
2022/02/12 04:09:19;;;;;;;;;29.00;25.25;;;;;8.05;52.42;102600.66;5103119;27;45349;-82
2022/02/12 04:11:45;;;;;;;;;20.50;18.50;;;;;7.98;52.45;102594.41;5102405;27;45438;-82
2022/02/12 04:14:10;;;;;;;;;19.75;18.00;;;;;7.98;52.39;102591.75;5102547;27;45257;-82
2022/02/12 04:16:36;;;;;;;;;24.00;21.75;;;;;7.97;52.16;102587.34;5100715;27;45233;-81
2022/02/12 04:19:01;;;;;;;;;22.75;19.25;;;;;8.01;52.63;102588.25;5102623;27;45232;-81
2022/02/12 04:21:26;;;;;;;;;17.00;17.00;;;;;7.97;52.61;102588.22;5095879;27;45862;-81
2022/02/12 04:23:51;;;;;;;;;18.00;16.75;;;;;8.02;52.58;102582.94;5088257;27;45355;-82
2022/02/12 04:26:18;;;;;;;;;20.25;17.00;;;;;7.98;52.71;102576.72;5115558;27;45547;-81
2022/02/12 04:28:43;;;;;;;;;17.25;16.00;;;;;7.96;52.46;102581.09;5099971;27;45273;-81
2022/02/12 04:31:09;;;;;;;;;18.25;17.25;;;;;8.00;52.60;102584.66;5107707;27;46169;-82
2022/02/12 04:33:35;;;;;;;;;20.75;17.75;;;;;7.85;52.74;102555.31;5097727;27;48058;-81
2022/02/12 04:36:01;;;;;;;;;16.75;15.25;;;;;7.96;52.40;102575.78;5099151;27;45375;-81
2022/02/12 04:38:26;;;;;;;;;14.50;14.50;;;;;7.95;52.51;102574.03;5102296;27;45417;-79
2022/02/12 04:40:51;;;;;;;;;20.00;16.50;;;;;7.90;52.42;102562.47;5099021;27;45669;-80
2022/02/12 04:43:17;;;;;;;;;23.50;19.00;;;;;7.95;52.38;102568.72;5094007;27;46558;-80
2022/02/12 04:45:42;;;;;;;;;22.25;20.25;;;;;7.93;52.29;102561.56;5102097;27;45308;-80
2022/02/12 04:48:07;;;;;;;;;18.25;17.50;;;;;7.91;52.34;102563.34;5099233;27;48547;-80
2022/02/12 04:50:33;;;;;;;;;17.00;13.75;;;;;7.92;52.42;102562.47;5093719;27;45484;-79
2022/02/12 04:52:59;;;;;;;;;18.00;17.50;;;;;7.93;52.69;102562.47;5098489;27;45301;-79
2022/02/12 04:55:24;;;;;;;;;15.75;14.00;;;;;7.95;52.51;102567.78;5100100;27;45822;-80
2022/02/12 04:57:50;;;;;;;;;20.75;17.00;;;;;7.87;52.38;102556.19;5100535;27;45463;-80
2022/02/12 05:00:16;;;;;;;;;19.00;17.25;;;;;7.95;52.54;102573.09;5099683;27;45775;-79
2022/02/12 05:02:42;;;;;;;;;23.00;17.50;;;;;7.87;52.37;102556.19;5101129;27;45271;-79
2022/02/12 05:05:08;;;;;;;;;23.25;19.00;;;;;7.90;52.45;102569.53;5101814;27;45482;-80
2022/02/12 05:07:34;;;;;;;;;15.00;14.25;;;;;7.85;52.78;102566.84;5098722;27;45538;-79
2022/02/12 05:09:59;;;;;;;;;22.25;16.50;;;;;7.81;52.84;102561.50;5098691;27;45499;-79
2022/02/12 05:12:25;;;;;;;;;20.00;15.50;;;;;7.79;52.54;102565.00;5100922;27;46022;-80
2022/02/12 05:14:51;;;;;;;;;21.75;18.50;;;;;7.79;52.76;102567.69;5099085;27;45393;-80
2022/02/12 05:17:16;;;;;;;;;21.75;18.50;;;;;7.77;52.78;102558.81;5100268;27;45294;-79
2022/02/12 05:19:41;;;;;;;;;18.25;18.25;;;;;7.71;53.14;102556.09;5100531;27;45369;-80
2022/02/12 05:22:07;;;;;;;;;19.50;16.75;;;;;7.72;52.58;102555.22;5097857;27;45511;-80
2022/02/12 05:24:32;;;;;;;;;19.00;16.50;;;;;7.70;53.08;102550.75;5095015;27;45499;-80
2022/02/12 05:26:58;;;;;;;;;17.25;16.50;;;;;7.72;52.91;102549.91;5099420;27;45726;-80
2022/02/12 05:29:23;;;;;;;;;17.25;14.50;;;;;7.69;52.68;102544.56;5098679;27;45310;-80
2022/02/12 05:31:49;;;;;;;;;19.00;16.75;;;;;7.70;53.01;102540.13;5099830;27;45749;-80
2022/02/12 05:34:14;;;;;;;;;16.00;14.75;;;;;7.61;52.91;102530.31;5095306;27;45527;-81
2022/02/12 05:36:40;;;;;;;;;17.50;14.25;;;;;7.68;53.00;102539.22;5097985;27;45325;-80
2022/02/12 05:39:05;;;;;;;;;15.00;14.25;;;;;7.66;53.38;102533.88;5083569;27;45289;-80
2022/02/12 05:41:31;;;;;;;;;15.75;13.00;;;;;7.64;53.14;102529.47;5097407;27;45781;-81
2022/02/12 05:43:56;;;;;;;;;16.25;13.25;;;;;7.60;52.86;102528.50;5094592;27;45455;-80
2022/02/12 05:46:22;;;;;;;;;18.25;15.00;;;;;7.58;53.03;102527.63;5099037;27;45409;-80
2022/02/12 05:48:47;;;;;;;;;13.00;12.75;;;;;7.63;52.77;102538.28;5094889;27;45583;-80
2022/02/12 05:51:18;;;;;;;;;12.00;12.00;;;;;7.60;53.30;102520.53;5097724;27;45498;-80
2022/02/12 05:53:43;;;;;;;;;13.50;13.50;;;;;7.52;53.07;102501.88;5099923;27;46964;-80
2022/02/12 05:56:08;;;;;;;;;14.00;13.50;;;;;7.62;53.10;102510.84;5100780;27;45400;-81
2022/02/12 05:58:34;;;;;;;;;13.00;12.25;;;;;7.63;53.29;102509.94;5099763;27;45309;-80
2022/02/12 06:00:59;;;;;;;;;13.25;13.00;;;;;7.57;52.81;102497.50;5101474;27;45976;-80
2022/02/12 06:03:24;;;;;;;;;14.25;13.75;;;;;7.54;53.00;102497.47;5099031;27;46823;-80
2022/02/12 06:05:50;;;;;;;;;13.00;13.00;;;;;7.49;52.72;102493.88;5100560;27;45296;-80
2022/02/12 06:08:15;;;;;;;;;13.50;13.50;;;;;7.48;53.39;102486.78;5100517;27;45416;-80
2022/02/12 06:10:40;;;;;;;;;16.50;11.75;;;;;7.47;53.05;102485.03;5100309;27;46106;-80
2022/02/12 06:13:06;;;;;;;;;12.25;11.00;;;;;7.52;53.22;102488.59;5099158;27;45289;-80
2022/02/12 06:15:35;;;;;;;;;14.50;12.75;;;;;7.50;52.93;102493.03;5099970;27;45648;-80
2022/02/12 06:18:01;;;;;;;;;11.00;10.00;;;;;7.53;52.79;102498.34;5104376;27;45606;-80
2022/02/12 06:20:27;;;;;;;;;8.75;8.75;;;;;7.48;53.21;102481.47;5105149;27;48113;-80
2022/02/12 06:22:52;;;;;;;;;11.00;11.00;;;;;7.54;53.24;102491.28;5098232;27;45647;-81
2022/02/12 06:25:17;;;;;;;;;11.75;11.75;;;;;7.51;53.24;102492.13;5100441;27;45374;-81
2022/02/12 06:27:43;;;;;;;;;13.50;13.50;;;;;7.50;53.07;102492.13;5100060;27;45305;-80
2022/02/12 06:30:08;;;;;;;;;12.00;10.00;;;;;7.49;52.76;102485.03;5099951;27;45320;-81
2022/02/12 06:32:34;;;;;;;;;11.75;9.75;;;;;7.44;52.76;102478.81;5099738;27;45455;-80
2022/02/12 06:35:01;;;;;;;;;9.75;9.50;;;;;7.47;52.98;102489.41;5093719;27;45310;-81
2022/02/12 06:37:27;;;;;;;;;12.50;11.75;;;;;7.51;53.32;102485.94;5090290;27;45744;-81
2022/02/12 06:39:53;;;;;;;;;11.00;8.25;;;;;7.47;52.79;102484.09;5099174;27;46756;-80
2022/02/12 06:42:18;;;;;;;;;12.00;11.00;;;;;7.47;53.29;102476.13;5099915;27;45247;-80
2022/02/12 06:44:44;;;;;;;;;11.50;10.50;;;;;7.39;52.94;102466.34;5085146;27;45511;-80
2022/02/12 06:47:10;;;;;;;;;13.50;7.75;;;;;7.45;53.31;102475.25;5099226;27;45249;-81
2022/02/12 06:49:35;;;;;;;;;11.75;9.00;;;;;7.47;52.90;102473.47;5098453;27;45326;-80
2022/02/12 06:52:03;;;;;;;;;9.00;9.00;;;;;7.46;53.28;102479.69;5097388;27;45760;-81
2022/02/12 06:54:28;;;;;;;;;11.75;10.00;;;;;7.39;53.24;102473.44;5102984;27;45331;-80
2022/02/12 06:56:54;;;;;;;;;13.00;11.75;;;;;7.38;53.26;102466.34;5103813;27;46202;-80
2022/02/12 06:59:19;;;;;;;;;13.00;11.00;;;;;7.41;53.39;102474.34;5102607;27;45965;-80
2022/02/12 07:01:44;;;;;;;;;12.50;11.75;;;;;7.39;52.98;102474.31;5100968;27;45289;-80
2022/02/12 07:04:10;;;;;;;;;11.75;10.75;;;;;7.38;52.81;102477.88;5093675;27;45313;-80
2022/02/12 07:06:36;;;;;;;;;14.00;12.75;;;;;7.36;53.08;102470.75;5101671;27;46200;-80
2022/02/12 07:09:04;;;;;;;;;14.25;11.00;;;;;7.39;53.14;102482.28;5098495;27;48480;-80
2022/02/12 07:11:30;;;;;;;;;11.50;9.75;;;;;7.29;52.90;102464.50;5098121;27;45789;-80
2022/02/12 07:13:55;;;;;;;;;12.50;10.25;;;;;7.32;53.19;102474.28;5096875;27;45579;-80
2022/02/12 07:16:20;;;;;;;;;13.50;13.50;;;;;7.27;53.16;102471.56;5099071;27;45728;-80
2022/02/12 07:18:47;;;;;;;;;11.50;10.25;;;;;7.34;53.36;102478.69;5094666;27;45477;-80
2022/02/12 07:21:13;;;;;;;;;11.00;11.00;;;;;7.34;53.29;102473.38;5097746;27;45790;-81
2022/02/12 07:23:40;;;;;;;;;12.75;11.00;;;;;7.35;52.92;102484.91;5096816;27;45256;-81
2022/02/12 07:26:06;;;;;;;;;11.50;11.00;;;;;7.21;52.76;102450.25;5095476;27;45940;-80
2022/02/12 07:28:31;;;;;;;;;9.25;9.25;;;;;7.32;52.93;102479.59;5093888;27;45338;-80
2022/02/12 07:30:57;;;;;;;;;14.00;12.00;;;;;7.30;52.76;102471.59;5100322;27;45513;-81
2022/02/12 07:33:26;;;;;;;;;9.50;7.00;;;;;7.30;52.91;102484.88;5101995;27;45402;-81
2022/02/12 07:35:52;;;;;;;;;15.50;12.00;;;;;7.30;53.13;102483.97;5102821;27;47098;-81
2022/02/12 07:38:17;;;;;;;;;15.00;12.00;;;;;7.25;52.91;102473.31;5102014;27;45325;-81
2022/02/12 07:40:43;;;;;;;;;18.00;14.00;;;;;7.27;52.89;102476.88;5100934;27;45365;-80
2022/02/12 07:43:08;;;;;;;;;15.00;10.00;;;;;7.24;52.76;102468.88;5100299;27;45425;-81
2022/02/12 07:45:34;;;;;;;;;14.00;11.50;;;;;7.22;52.86;102468.84;5100370;27;45505;-79
2022/02/12 07:47:59;;;;;;;;;11.75;11.00;;;;;7.18;53.19;102467.06;5097976;27;47210;-70
2022/02/12 07:50:26;;;;;;;;;11.50;10.50;;;;;7.25;53.31;102478.63;5099047;27;45498;-72
2022/02/12 07:52:52;;;;;;;;;12.00;12.00;;;;;7.22;53.23;102470.63;5101450;27;45289;-72
2022/02/12 07:55:19;;;;;;;;;11.75;11.25;;;;;7.27;53.20;102482.19;5102499;27;45304;-72
2022/02/12 07:57:45;;;;;;;;;13.00;11.25;;;;;7.21;53.15;102475.03;5101332;27;45224;-72
2022/02/12 08:00:13;;;;;;;;;11.75;11.75;;;;;7.29;53.07;102491.06;5102284;27;45295;-72
2022/02/12 08:02:40;;;;;;;;;16.50;12.50;;;;;7.25;53.31;102486.59;5096909;27;45422;-69
2022/02/12 08:05:06;;;;;;;;;16.75;12.75;;;;;7.26;53.07;102477.75;5101621;27;45449;-68
2022/02/12 08:07:34;;;;;;;;;13.25;11.75;;;;;7.25;53.02;102483.94;5098905;27;45688;-68
2022/02/12 08:11:22;;;;;;;;;14.00;14.00;;;;;7.27;52.89;102483.94;5087979;27;45798;-69
2022/02/12 08:12:48;;;;;;;;;13.50;12.00;;;;;7.26;53.20;102485.72;5097338;27;45252;-69
2022/02/12 08:15:13;;;;;;;;;13.75;13.75;;;;;7.27;52.72;102492.81;5092339;27;45302;-69
2022/02/12 08:17:39;;;;;;;;;13.75;13.75;;;;;7.24;53.28;102492.78;5084190;27;46889;-68
2022/02/12 08:20:05;;;;;;;;;20.75;15.75;;;;;7.12;52.83;102479.41;5096017;27;45382;-69
2022/02/12 08:22:30;;;;;;;;;12.25;10.00;;;;;7.19;52.67;102489.19;5101317;27;45356;-69
2022/02/12 08:24:55;;;;;;;;;13.50;12.50;;;;;7.17;53.15;102494.50;5092757;27;45219;-68
2022/02/12 08:27:22;;;;;;;;;16.00;12.75;;;;;7.12;53.44;102487.38;5100919;27;45440;-68
2022/02/12 08:29:48;;;;;;;;;13.25;13.25;;;;;7.09;52.77;102476.72;5102285;27;45722;-68
2022/02/12 08:32:14;;;;;;;;;10.50;10.50;;;;;7.12;53.18;102484.72;5101495;27;45500;-69
2022/02/12 08:34:42;;;;;;;;;16.75;13.00;;;;;7.09;53.25;102474.06;5096355;27;45325;-70
2022/02/12 08:37:07;;;;;;;;;13.50;10.25;;;;;7.03;53.14;102465.16;5096476;27;45407;-70
2022/02/12 08:39:33;;;;;;;;;17.00;16.25;;;;;7.08;52.75;102477.56;5101692;27;45456;-71
2022/02/12 08:41:58;;;;;;;;;12.25;7.75;;;;;7.02;52.50;102466.00;5099618;27;45358;-71
2022/02/12 08:44:23;;;;;;;;;15.75;13.50;;;;;7.04;53.21;102480.19;5097512;27;45634;-71
2022/02/12 08:46:49;;;;;;;;;16.75;14.25;;;;;7.07;53.31;102475.78;5091973;27;45581;-71
2022/02/12 08:49:14;;;;;;;;;15.25;13.75;;;;;7.00;53.18;102464.19;5099251;27;45572;-71
2022/02/12 08:51:41;;;;;;;;;15.75;13.75;;;;;7.03;53.14;102467.81;5100300;27;45457;-71
2022/02/12 08:54:08;;;;;;;;;18.00;15.00;;;;;7.01;53.26;102468.66;5105640;27;45577;-70
2022/02/12 08:56:35;;;;;;;;;17.00;14.75;;;;;6.98;52.66;102461.56;5099486;27;45446;-71
2022/02/12 08:59:01;;;;;;;;;20.00;17.50;;;;;7.01;53.08;102469.53;5098296;27;45913;-71
2022/02/12 09:01:27;;;;;;;;;15.00;13.75;;;;;6.98;52.52;102464.22;5094165;27;45513;-71
2022/02/12 09:03:52;;;;;;;;;15.00;13.00;;;;;7.00;53.17;102464.19;5093996;27;45818;-72
2022/02/12 09:06:18;;;;;;;;;16.00;13.00;;;;;6.99;52.74;102455.34;5094467;27;47258;-79
2022/02/12 09:08:43;;;;;;;;;16.50;16.50;;;;;6.93;53.40;102446.44;5095176;27;45683;-79
2022/02/12 09:11:08;;;;;;;;;18.75;17.00;;;;;7.00;53.07;102456.22;5097248;27;46771;-78
2022/02/12 09:13:34;;;;;;;;;21.25;17.00;;;;;7.03;53.06;102448.31;5100116;27;45500;-78
2022/02/12 09:15:59;;;;;;;;;19.00;16.50;;;;;6.96;53.36;102431.44;5098995;27;46336;-77
2022/02/12 09:18:25;;;;;;;;;16.50;15.50;;;;;7.00;52.80;102441.22;5092726;27;45372;-76
2022/02/12 09:20:50;;;;;;;;;12.50;11.50;;;;;6.94;53.49;102430.53;5092754;27;45685;-76
2022/02/12 09:23:15;;;;;;;;;17.25;14.25;;;;;6.91;52.90;102421.66;5097922;27;45433;-75
2022/02/12 09:25:41;;;;;;;;;19.75;16.00;;;;;7.02;52.93;102433.28;5101185;27;45388;-77
2022/02/12 09:28:06;;;;;;;;;18.25;16.50;;;;;7.04;52.85;102437.69;5100339;27;45488;-76
2022/02/12 09:30:31;;;;;;;;;20.00;17.25;;;;;7.05;53.21;102444.81;5098721;27;45329;-76
2022/02/12 09:32:57;;;;;;;;;21.50;16.50;;;;;6.99;53.21;102435.91;5099560;27;45470;-76
2022/02/12 09:35:24;;;;;;;;;16.75;16.75;;;;;7.04;53.17;102434.16;5097180;27;45621;-76
2022/02/12 09:37:50;;;;;;;;;19.25;17.00;;;;;7.04;53.43;102427.06;5114945;27;45896;-76
2022/02/12 09:40:15;;;;;;;;;15.25;13.00;;;;;7.02;52.94;102415.56;5101024;27;45527;-77
2022/02/12 09:42:41;;;;;;;;;16.50;13.25;;;;;7.11;52.86;102421.84;5099048;27;45401;-77
2022/02/12 09:45:08;;;;;;;;;13.25;11.50;;;;;7.13;52.54;102420.97;5097440;27;45573;-76
2022/02/12 09:47:51;;;;;;;;;16.75;15.00;;;;;7.10;53.34;102406.75;5101083;27;45727;-76
2022/02/12 09:50:22;;;;;;;;;16.00;14.00;;;;;7.20;53.40;102421.91;5094009;27;45448;-76
2022/02/12 09:52:52;;;;;;;;;14.50;12.50;;;;;7.24;53.01;102421.06;5096261;27;47842;-75
2022/02/12 09:55:19;;;;;;;;;9.00;9.00;;;;;7.26;52.50;102414.00;5100913;27;45993;-76
2022/02/12 09:57:44;;;;;;;;;21.50;17.50;;;;;7.31;52.79;102412.25;5101808;27;45668;-75
2022/02/12 10:00:14;;;;;;;;;12.25;11.25;;;;;7.34;52.50;102422.91;5103446;27;45443;-76
2022/02/12 10:02:40;;;;;;;;;13.00;13.00;;;;;7.31;52.16;102404.28;5100190;27;45455;-76
2022/02/12 10:05:23;;;;;;;;;15.00;13.50;;;;;7.38;52.24;102410.53;5098604;27;47667;-77
2022/02/12 10:07:51;;;;;;;;;13.25;13.25;;;;;7.41;52.63;102411.44;5088488;27;45249;-77
2022/02/12 10:10:18;;;;;;;;;11.00;9.00;;;;;7.42;52.19;102407.03;5093509;27;45550;-76
2022/02/12 10:12:44;;;;;;;;;14.00;11.75;;;;;7.50;51.85;102399.09;5094728;27;45764;-77
2022/02/12 10:15:22;;;;;;;;;14.00;13.00;;;;;7.53;51.73;102389.38;5099547;27;45327;-79
2022/02/12 10:17:56;;;;;;;;;12.75;12.00;;;;;7.56;51.91;102392.06;5099996;27;45167;-78
2022/02/12 10:20:29;;;;;;;;;15.50;12.75;;;;;7.57;51.86;102385.00;5099594;27;45537;-78
2022/02/12 10:23:09;;;;;;;;;11.25;11.25;;;;;7.57;51.75;102371.72;5098931;27;45472;-79
2022/02/12 10:25:36;;;;;;;;;11.00;9.50;;;;;7.66;51.33;102381.50;5098037;27;47274;-77
2022/02/12 10:28:03;;;;;;;;;15.50;12.00;;;;;7.65;51.32;102371.75;5087191;27;45567;-78
2022/02/12 10:30:29;;;;;;;;;11.50;9.00;;;;;7.65;51.29;102370.00;5098972;27;45744;-78
2022/02/12 10:33:01;;;;;;;;;13.00;12.00;;;;;7.70;50.76;102370.91;5100427;27;45554;-77
2022/02/12 10:35:27;;;;;;;;;13.25;11.75;;;;;7.68;51.53;102364.66;5097686;27;47149;-77
2022/02/12 10:37:58;;;;;;;;;14.25;12.25;;;;;7.74;50.98;102362.06;5096177;27;45851;-72
2022/02/12 10:40:24;;;;;;;;;11.75;11.75;;;;;7.74;50.88;102353.19;5094311;27;47455;-78
2022/02/12 10:42:52;;;;;;;;;14.75;11.75;;;;;7.73;50.90;102346.97;5096533;27;45511;-75
2022/02/12 10:45:18;;;;;;;;;14.00;11.50;;;;;7.78;50.61;102352.31;5092323;27;45495;-77
2022/02/12 10:47:48;;;;;;;;;10.25;8.75;;;;;7.79;50.32;102343.47;5099831;27;45475;-76
2022/02/12 10:50:18;;;;;;;;;8.00;7.75;;;;;7.79;50.49;102339.03;5100183;27;45424;-75
2022/02/12 10:52:46;;;;;;;;;14.50;11.00;;;;;7.85;50.07;102334.63;5105826;27;45763;-75
2022/02/12 10:55:30;;;;;;;;;11.00;10.50;;;;;7.88;50.43;102329.34;5094224;27;46413;-78
2022/02/12 10:57:57;;;;;;;;;13.50;9.50;;;;;7.94;50.53;102338.22;5097645;27;45493;-85
2022/02/12 11:00:25;;;;;;;;;13.00;12.00;;;;;8.01;50.03;102340.91;5098832;27;45270;-79
2022/02/12 11:02:52;;;;;;;;;11.75;11.00;;;;;8.04;49.72;102341.81;5093780;27;45980;-72
2022/02/12 11:05:22;;;;;;;;;9.00;9.00;;;;;8.08;50.02;102329.41;5096489;27;45535;-77
2022/02/12 11:07:49;;;;;;;;;13.25;9.00;;;;;8.13;49.48;102327.66;5099258;27;45270;-74
2022/02/12 11:10:15;;;;;;;;;10.50;10.25;;;;;8.17;49.75;102324.13;5098764;27;45214;-78
2022/02/12 11:12:41;;;;;;;;;10.00;10.00;;;;;8.19;49.54;102318.81;5096417;27;45374;-74
2022/02/12 11:15:07;;;;;;;;;9.00;8.00;;;;;8.24;49.19;102320.59;5097280;27;46757;-77
2022/02/12 11:17:34;;;;;;;;;12.00;9.00;;;;;8.27;49.12;102315.28;5099465;27;45422;-80
2022/02/12 11:20:01;;;;;;;;;10.75;10.25;;;;;8.27;48.78;102306.41;5098875;27;45508;-73
2022/02/12 11:22:27;;;;;;;;;10.50;8.00;;;;;8.31;48.82;102301.09;5094904;27;45279;-68